createdAt,value
2022-08-10T00:01:51.222Z,102617.47
2022-08-10T00:04:21.736Z,102610.97
2022-08-10T00:06:51.811Z,102615.00
2022-08-10T00:09:21.560Z,102610.19
2022-08-10T00:11:52.166Z,102612.78
2022-08-10T00:14:20.247Z,102615.50
2022-08-10T00:16:48.721Z,102608.81
2022-08-10T00:19:17.451Z,102613.78
2022-08-10T00:21:46.721Z,102613.16
2022-08-10T00:24:15.281Z,102614.22
2022-08-10T00:27:52.634Z,102617.63
2022-08-10T00:29:33.177Z,102614.41
2022-08-10T00:32:01.318Z,102604.59
2022-08-10T00:34:30.202Z,102610.47
2022-08-10T00:36:59.012Z,102604.06
2022-08-10T00:39:28.387Z,102608.44
2022-08-10T00:42:01.993Z,102603.00
2022-08-10T00:44:37.472Z,102603.22
2022-08-10T00:47:06.046Z,102602.56
2022-08-10T00:49:34.359Z,102603.34
2022-08-10T00:52:03.666Z,102603.63
2022-08-10T00:54:31.828Z,102601.50
2022-08-10T00:57:16.239Z,102602.66
2022-08-10T00:59:59.371Z,102599.00
2022-08-10T01:02:30.351Z,102596.06
2022-08-10T01:05:01.948Z,102597.22
2022-08-10T01:08:00.498Z,102598.06
2022-08-10T01:10:42.506Z,102599.22
2022-08-10T01:13:21.079Z,102598.53
2022-08-10T01:15:57.182Z,102593.03
2022-08-10T01:18:37.819Z,102600.25
2022-08-10T01:21:48.037Z,102596.09
2022-08-10T01:24:40.478Z,102588.97
2022-08-10T01:27:20.695Z,102597.16
2022-08-10T01:30:02.237Z,102591.94
2022-08-10T01:32:51.315Z,102585.97
2022-08-10T01:35:27.202Z,102578.94
2022-08-10T01:38:03.387Z,102587.47
2022-08-10T01:40:35.184Z,102580.97
2022-08-10T01:43:07.857Z,102583.81
2022-08-10T01:45:45.737Z,102579.34
2022-08-10T01:48:30.837Z,102578.59
2022-08-10T01:51:17.219Z,102576.34
2022-08-10T01:53:52.138Z,102574.00
2022-08-10T01:56:23.593Z,102575.41
2022-08-10T01:58:57.156Z,102563.72
2022-08-10T02:01:30.775Z,102580.53
2022-08-10T02:04:06.096Z,102574.56
2022-08-10T02:06:39.149Z,102573.69
2022-08-10T02:09:09.208Z,102578.81
2022-08-10T02:12:07.690Z,102569.03
2022-08-10T02:14:33.553Z,102567.63
2022-08-10T02:17:07.641Z,102569.72
2022-08-10T02:19:39.182Z,102569.06
2022-08-10T02:22:35.939Z,102570.56
2022-08-10T02:24:59.709Z,102569.06
2022-08-10T02:27:28.645Z,102565.47
2022-08-10T02:29:59.091Z,102565.56
2022-08-10T02:32:37.761Z,102578.47
2022-08-10T02:35:21.984Z,102574.47
2022-08-10T02:37:54.133Z,102577.69
2022-08-10T02:45:13.466Z,102579.78
2022-08-10T02:45:23.629Z,102575.97
2022-08-10T02:46:14.273Z,102580.56
2022-08-10T02:48:57.908Z,102587.19
2022-08-10T02:52:06.923Z,102578.28
2022-08-10T02:54:23.916Z,102576.38
2022-08-10T02:56:56.076Z,102570.22
2022-08-10T02:59:28.995Z,102576.03
2022-08-10T03:02:13.215Z,102571.97
2022-08-10T03:04:55.301Z,102572.63
2022-08-10T03:07:43.559Z,102571.97
2022-08-10T03:10:16.829Z,102574.25
2022-08-10T03:12:46.907Z,102576.69
2022-08-10T03:15:17.737Z,102566.19
2022-08-10T03:17:57.069Z,102572.63
2022-08-10T03:20:37.482Z,102574.06
2022-08-10T03:23:10.987Z,102572.47
2022-08-10T03:25:40.632Z,102574.53
2022-08-10T03:28:09.723Z,102570.38
2022-08-10T03:30:39.193Z,102559.66
2022-08-10T03:33:08.818Z,102564.38
2022-08-10T03:35:38.933Z,102558.44
2022-08-10T03:38:07.182Z,102552.16
2022-08-10T03:40:46.022Z,102559.16
2022-08-10T03:43:18.163Z,102550.47
2022-08-10T03:45:55.071Z,102548.38
2022-08-10T03:48:42.457Z,102551.88
2022-08-10T03:51:17.086Z,102549.41
2022-08-10T03:54:03.518Z,102554.81
2022-08-10T03:56:37.759Z,102548.00
2022-08-10T03:59:09.964Z,102542.00
2022-08-10T04:02:43.940Z,102545.28
2022-08-10T04:04:27.695Z,102547.56
2022-08-10T04:06:58.898Z,102548.84
2022-08-10T04:09:42.905Z,102548.97
2022-08-10T04:12:18.898Z,102550.19
2022-08-10T04:14:51.218Z,102546.41
2022-08-10T04:18:04.161Z,102551.06
2022-08-10T04:20:18.157Z,102549.91
2022-08-10T04:22:51.054Z,102561.56
2022-08-10T04:25:19.390Z,102558.91
2022-08-10T04:27:48.919Z,102559.75
2022-08-10T04:30:17.194Z,102551.69
2022-08-10T04:32:48.266Z,102558.81
2022-08-10T04:35:20.057Z,102546.78
2022-08-10T04:37:52.190Z,102555.03
2022-08-10T04:40:29.934Z,102555.28
2022-08-10T04:43:02.222Z,102562.41
2022-08-10T04:45:48.749Z,102559.06
2022-08-10T04:48:43.295Z,102557.94
2022-08-10T04:51:18.283Z,102553.88
2022-08-10T04:54:03.888Z,102552.94
2022-08-10T04:56:38.028Z,102539.47
2022-08-10T04:59:07.016Z,102552.09
2022-08-10T05:02:09.885Z,102546.59
2022-08-10T05:04:35.508Z,102554.44
2022-08-10T05:07:09.110Z,102555.28
2022-08-10T05:10:02.950Z,102561.00
2022-08-10T05:12:27.949Z,102566.22
2022-08-10T05:14:56.411Z,102561.25
2022-08-10T05:17:30.027Z,102559.44
2022-08-10T05:20:02.890Z,102557.81
2022-08-10T05:22:38.661Z,102553.50
2022-08-10T05:25:10.667Z,102559.25
2022-08-10T05:27:39.812Z,102561.91
2022-08-10T05:30:09.809Z,102562.69
2022-08-10T05:32:57.299Z,102557.66
2022-08-10T05:35:57.188Z,102563.81
2022-08-10T05:38:18.844Z,102560.84
2022-08-10T05:40:50.388Z,102562.13
2022-08-10T05:43:20.210Z,102564.69
2022-08-10T05:46:18.652Z,102571.31
2022-08-10T05:48:55.671Z,102574.72
2022-08-10T05:51:27.530Z,102570.66
2022-08-10T05:54:01.397Z,102574.25
2022-08-10T05:56:55.860Z,102571.41
2022-08-10T06:00:34.877Z,102568.06
2022-08-10T06:02:34.132Z,102568.34
2022-08-10T06:05:09.035Z,102567.09
2022-08-10T06:07:41.047Z,102571.25
2022-08-10T06:10:13.711Z,102568.31
2022-08-10T06:12:54.118Z,102565.56
2022-08-10T06:15:50.790Z,102569.72
2022-08-10T06:18:14.314Z,102570.56
2022-08-10T06:20:43.553Z,102569.22
2022-08-10T06:23:12.628Z,102570.31
2022-08-10T06:26:10.020Z,102564.31
2022-08-10T06:28:34.838Z,102573.47
2022-08-10T06:31:05.466Z,102570.28
2022-08-10T06:33:36.236Z,102570.03
2022-08-10T06:36:07.183Z,102567.47
2022-08-10T06:38:37.270Z,102569.28
2022-08-10T06:41:10.067Z,102566.72
2022-08-10T06:43:41.532Z,102572.22
2022-08-10T06:46:16.743Z,102566.44
2022-08-10T06:48:51.292Z,102577.28
2022-08-10T06:51:24.777Z,102576.47
2022-08-10T06:53:55.589Z,102570.16
2022-08-10T06:56:37.604Z,102580.75
2022-08-10T06:59:21.906Z,102566.53
2022-08-10T07:01:55.518Z,102570.66
2022-08-10T07:04:32.596Z,102575.13
2022-08-10T07:07:05.364Z,102576.19
2022-08-10T07:09:37.223Z,102577.81
2022-08-10T07:12:09.053Z,102570.97
2022-08-10T07:14:44.524Z,102574.63
2022-08-10T07:17:15.877Z,102573.38
2022-08-10T07:19:49.617Z,102561.00
2022-08-10T07:23:50.630Z,102574.72
2022-08-10T07:25:12.316Z,102567.94
2022-08-10T07:28:00.061Z,102579.81
2022-08-10T07:30:33.339Z,102574.47
2022-08-10T07:33:03.493Z,102574.19
2022-08-10T07:35:41.727Z,102568.19
2022-08-10T07:38:14.486Z,102574.06
2022-08-10T07:40:44.986Z,102569.50
2022-08-10T07:43:15.213Z,102575.19
2022-08-10T07:45:46.168Z,102569.16
2022-08-10T07:48:18.053Z,102574.38
2022-08-10T07:50:47.878Z,102576.47
2022-08-10T07:53:22.650Z,102578.66
2022-08-10T07:56:05.739Z,102573.66
2022-08-10T07:58:46.412Z,102577.94
2022-08-10T08:01:24.407Z,102577.13
2022-08-10T08:04:05.897Z,102575.31
2022-08-10T08:06:41.748Z,102574.38
2022-08-10T08:09:10.712Z,102565.06
2022-08-10T08:11:40.501Z,102559.44
2022-08-10T08:14:10.762Z,102561.25
2022-08-10T08:16:45.255Z,102564.03
2022-08-10T08:19:37.319Z,102556.09
2022-08-10T08:24:04.353Z,102554.34
2022-08-10T08:24:53.176Z,102556.19
2022-08-10T08:27:22.789Z,102557.00
2022-08-10T08:29:52.844Z,102564.25
2022-08-10T08:32:25.768Z,102558.38
2022-08-10T08:34:56.581Z,102564.00
2022-08-10T08:38:33.086Z,102564.69
2022-08-10T08:40:24.550Z,102557.31
2022-08-10T08:43:23.091Z,102560.28
2022-08-10T08:46:19.545Z,102551.81
2022-08-10T08:49:12.683Z,102559.00
2022-08-10T08:52:18.228Z,102563.09
2022-08-10T08:54:59.118Z,102554.81
2022-08-10T08:57:50.162Z,102561.59
2022-08-10T09:00:29.577Z,102554.03
2022-08-10T09:03:25.013Z,102552.53
2022-08-10T09:06:07.652Z,102544.78
2022-08-10T09:09:21.722Z,102545.72
2022-08-10T09:12:03.478Z,102540.16
2022-08-10T09:14:38.575Z,102542.34
2022-08-10T09:17:20.039Z,102545.72
2022-08-10T09:19:55.227Z,102544.53
2022-08-10T09:22:34.050Z,102543.63
2022-08-10T09:25:13.841Z,102544.44
2022-08-10T09:27:49.262Z,102540.84
2022-08-10T09:30:29.283Z,102536.72
2022-08-10T09:36:22.291Z,102528.19
2022-08-10T09:36:24.757Z,102523.81
2022-08-10T09:39:06.619Z,102520.75
2022-08-10T09:41:46.812Z,102522.91
2022-08-10T09:44:24.114Z,102518.69
2022-08-10T09:47:19.448Z,102519.75
2022-08-10T09:50:04.844Z,102523.69
2022-08-10T09:52:42.129Z,102518.09
2022-08-10T09:56:18.359Z,102512.47
2022-08-10T09:58:36.891Z,102506.44
2022-08-10T10:01:23.609Z,102510.63
2022-08-10T10:04:08.539Z,102500.91
2022-08-10T10:06:41.362Z,102507.16
2022-08-10T10:09:16.003Z,102492.09
2022-08-10T10:12:10.195Z,102494.97
2022-08-10T10:15:08.782Z,102485.25
2022-08-10T10:17:44.816Z,102490.13
2022-08-10T10:20:25.886Z,102474.06
2022-08-10T10:23:02.995Z,102485.75
2022-08-10T10:25:50.803Z,102471.81
2022-08-10T10:29:07.007Z,102467.78
2022-08-10T10:31:31.948Z,102463.50
2022-08-10T10:34:11.048Z,102462.94
2022-08-10T10:36:43.333Z,102465.41
2022-08-10T10:39:17.604Z,102466.88
2022-08-10T10:42:03.840Z,102457.25
2022-08-10T10:44:43.577Z,102461.47
2022-08-10T10:47:33.508Z,102456.16
2022-08-10T10:50:07.817Z,102454.63
2022-08-10T10:52:46.318Z,102450.53
2022-08-10T10:55:19.317Z,102448.13
2022-08-10T10:57:59.056Z,102446.41
2022-08-10T11:00:35.869Z,102441.25
2022-08-10T11:03:35.807Z,102438.31
2022-08-10T11:06:15.912Z,102432.47
2022-08-10T11:08:52.081Z,102425.75
2022-08-10T11:12:02.118Z,102418.44
2022-08-10T11:14:29.293Z,102422.81
2022-08-10T11:17:05.820Z,102423.22
2022-08-10T11:20:03.058Z,102416.88
2022-08-10T11:22:36.766Z,102416.47
2022-08-10T11:25:12.895Z,102412.16
2022-08-10T11:27:49.840Z,102414.56
2022-08-10T11:30:21.974Z,102412.81
2022-08-10T11:33:13.472Z,102420.00
2022-08-10T11:35:46.595Z,102421.22
2022-08-10T11:38:31.195Z,102419.03
2022-08-10T11:41:14.580Z,102418.59
2022-08-10T11:44:08.167Z,102416.09
2022-08-10T11:46:40.542Z,102405.13
2022-08-10T11:49:11.181Z,102403.56
2022-08-10T11:51:45.408Z,102406.66
2022-08-10T11:54:25.488Z,102396.72
2022-08-10T11:57:01.306Z,102400.91
2022-08-10T11:59:50.685Z,102397.56
2022-08-10T12:02:30.637Z,102388.09
2022-08-10T12:05:04.228Z,102388.16
2022-08-10T12:10:07.218Z,102387.63
2022-08-10T12:10:24.629Z,102383.13
2022-08-10T12:12:59.783Z,102384.00
2022-08-10T12:15:35.823Z,102375.44
2022-08-10T12:18:13.741Z,102380.31
2022-08-10T12:20:49.150Z,102372.66
2022-08-10T12:23:25.070Z,102367.38
2022-08-10T12:25:59.572Z,102369.88
2022-08-10T12:28:50.103Z,102368.34
2022-08-10T12:31:24.567Z,102363.59
2022-08-10T12:34:05.378Z,102364.19
2022-08-10T12:36:42.170Z,102368.13
2022-08-10T12:39:16.965Z,102358.34
2022-08-10T12:41:54.163Z,102359.84
2022-08-10T12:44:41.171Z,102348.56
2022-08-10T12:47:18.113Z,102365.47
2022-08-10T12:50:30.183Z,102356.78
2022-08-10T12:52:52.929Z,102349.16
2022-08-10T12:55:22.297Z,102346.28
2022-08-10T12:57:53.706Z,102343.91
2022-08-10T13:00:27.870Z,102346.53
2022-08-10T13:02:58.293Z,102341.75
2022-08-10T13:05:28.238Z,102338.56
2022-08-10T13:08:26.680Z,102335.22
2022-08-10T13:11:00.421Z,102333.53
2022-08-10T13:13:34.857Z,102329.00
2022-08-10T13:16:04.192Z,102334.63
2022-08-10T13:18:35.283Z,102322.59
2022-08-10T13:21:19.994Z,102317.34
2022-08-10T13:24:03.932Z,102318.56
2022-08-10T13:26:37.396Z,102319.81
2022-08-10T13:29:26.090Z,102316.88
2022-08-10T13:32:08.835Z,102311.59
2022-08-10T13:34:45.626Z,102313.50
2022-08-10T13:37:17.203Z,102307.19
2022-08-10T13:39:59.870Z,102294.06
2022-08-10T13:42:32.224Z,102301.47
2022-08-10T13:45:08.397Z,102300.16
2022-08-10T13:47:47.940Z,102298.63
2022-08-10T13:50:34.626Z,102293.13
2022-08-10T13:53:11.708Z,102292.97
2022-08-10T13:55:55.321Z,102285.44
2022-08-10T13:58:30.634Z,102291.06
2022-08-10T14:01:00.510Z,102279.97
2022-08-10T14:03:35.516Z,102280.84
2022-08-10T14:06:06.807Z,102272.31
2022-08-10T14:08:36.060Z,102279.41
2022-08-10T14:11:12.613Z,102283.50
2022-08-10T14:13:45.651Z,102273.41
2022-08-10T14:16:14.886Z,102262.66
2022-08-10T14:18:45.918Z,102258.75
2022-08-10T14:21:15.013Z,102255.75
2022-08-10T14:23:52.992Z,102260.38
2022-08-10T14:26:26.373Z,102250.16
2022-08-10T14:28:58.792Z,102245.84
2022-08-10T14:31:34.524Z,102245.66
2022-08-10T14:34:06.726Z,102247.16
2022-08-10T14:36:39.254Z,102242.06
2022-08-10T14:39:09.886Z,102247.75
2022-08-10T14:42:01.593Z,102250.75
2022-08-10T14:44:32.041Z,102240.50
2022-08-10T14:47:51.296Z,102244.06
2022-08-10T14:49:57.503Z,102243.81
2022-08-10T14:52:28.853Z,102236.59
2022-08-10T14:55:05.725Z,102238.13
2022-08-10T14:58:18.904Z,102236.03
2022-08-10T15:00:43.156Z,102240.97
2022-08-10T15:03:58.722Z,102232.50
2022-08-10T15:06:17.321Z,102232.16
2022-08-10T15:08:48.014Z,102229.13
2022-08-10T15:12:13.354Z,102229.03
2022-08-10T15:14:14.785Z,102232.09
2022-08-10T15:16:58.627Z,102235.53
2022-08-10T15:20:01.315Z,102227.31
2022-08-10T15:22:36.960Z,102224.19
2022-08-10T15:25:17.853Z,102216.03
2022-08-10T15:27:54.271Z,102216.38
2022-08-10T15:30:31.583Z,102223.28
2022-08-10T15:33:21.529Z,102219.94
2022-08-10T15:36:28.090Z,102224.38
2022-08-10T15:39:01.640Z,102225.19
2022-08-10T15:41:57.916Z,102214.53
2022-08-10T15:44:39.844Z,102201.53
2022-08-10T15:47:16.778Z,102211.44
2022-08-10T15:49:53.726Z,102205.72
2022-08-10T15:53:00.110Z,102205.66
2022-08-10T15:55:43.525Z,102195.78
2022-08-10T15:58:13.958Z,102193.56
2022-08-10T16:00:50.513Z,102194.28
2022-08-10T16:03:33.084Z,102192.16
2022-08-10T16:06:03.366Z,102193.91
2022-08-10T16:08:56.229Z,102192.03
2022-08-10T16:11:37.652Z,102198.38
2022-08-10T16:14:17.975Z,102192.63
2022-08-10T16:16:50.745Z,102188.69
2022-08-10T16:19:25.049Z,102197.16
2022-08-10T16:22:00.046Z,102188.66
2022-08-10T16:24:32.748Z,102184.03
2022-08-10T16:27:06.429Z,102193.88
2022-08-10T16:29:55.929Z,102186.56
2022-08-10T16:32:26.652Z,102179.34
2022-08-10T16:34:57.945Z,102183.53
2022-08-10T16:37:58.607Z,102186.25
2022-08-10T16:40:26.575Z,102180.22
2022-08-10T16:42:55.651Z,102180.00
2022-08-10T16:45:31.946Z,102184.59
2022-08-10T16:48:01.942Z,102173.97
2022-08-10T16:50:36.565Z,102168.31
2022-08-10T16:53:07.861Z,102175.41
2022-08-10T16:55:48.175Z,102167.88
2022-08-10T16:58:20.348Z,102165.81
2022-08-10T17:00:51.205Z,102159.56
2022-08-10T17:04:07.087Z,102160.38
2022-08-10T17:06:22.009Z,102156.78
2022-08-10T17:08:54.125Z,102149.47
2022-08-10T17:11:24.215Z,102148.66
2022-08-10T17:13:56.986Z,102145.28
2022-08-10T17:16:27.228Z,102152.81
2022-08-10T17:18:57.893Z,102140.69
2022-08-10T17:21:36.512Z,102156.81
2022-08-10T17:24:08.050Z,102153.25
2022-08-10T17:26:38.414Z,102147.38
2022-08-10T17:29:58.279Z,102150.72
2022-08-10T17:32:09.576Z,102153.84
2022-08-10T17:34:41.397Z,102157.41
2022-08-10T17:37:17.163Z,102158.00
2022-08-10T17:39:49.816Z,102150.91
2022-08-10T17:42:22.086Z,102150.72
2022-08-10T17:44:53.746Z,102153.19
2022-08-10T17:47:27.229Z,102153.72
2022-08-10T17:49:57.817Z,102149.34
2022-08-10T17:52:31.788Z,102150.50
2022-08-10T17:55:04.214Z,102154.28
2022-08-10T17:57:36.389Z,102148.84
2022-08-10T18:00:07.016Z,102150.63
2022-08-10T18:02:40.220Z,102144.38
2022-08-10T18:05:11.035Z,102148.44
2022-08-10T18:07:46.542Z,102145.88
2022-08-10T18:10:18.274Z,102149.22
2022-08-10T18:12:50.022Z,102140.53
2022-08-10T18:15:22.181Z,102144.72
2022-08-10T18:17:59.312Z,102150.19
2022-08-10T18:20:35.826Z,102147.63
2022-08-10T18:23:09.077Z,102150.81
2022-08-10T18:25:39.692Z,102145.13
2022-08-10T18:28:16.098Z,102154.88
2022-08-10T18:30:48.197Z,102154.25
2022-08-10T18:33:18.533Z,102154.00
2022-08-10T18:35:49.082Z,102163.28
2022-08-10T18:38:20.138Z,102158.06
2022-08-10T18:40:54.330Z,102157.00
2022-08-10T18:44:10.118Z,102155.63
2022-08-10T18:46:22.828Z,102157.50
2022-08-10T18:48:55.394Z,102161.34
2022-08-10T18:51:26.909Z,102153.13
2022-08-10T18:54:00.583Z,102162.25
2022-08-10T18:56:45.347Z,102164.38
2022-08-10T18:59:32.764Z,102168.13
2022-08-10T19:02:11.222Z,102171.66
2022-08-10T19:04:56.856Z,102170.47
2022-08-10T19:07:42.255Z,102166.16
2022-08-10T19:10:26.523Z,102169.28
2022-08-10T19:13:01.832Z,102174.41
2022-08-10T19:15:37.380Z,102168.09
2022-08-10T19:18:21.017Z,102179.31
2022-08-10T19:20:55.356Z,102171.41
2022-08-10T19:23:40.960Z,102171.03
2022-08-10T19:26:42.474Z,102179.06
2022-08-10T19:30:10.233Z,102175.69
2022-08-10T19:32:30.534Z,102171.28
2022-08-10T19:35:05.239Z,102170.69
2022-08-10T19:37:41.431Z,102177.63
2022-08-10T19:40:43.387Z,102182.22
2022-08-10T19:43:30.614Z,102178.03
2022-08-10T19:46:15.186Z,102179.22
2022-08-10T19:49:04.739Z,102178.41
2022-08-10T19:51:48.943Z,102179.94
2022-08-10T19:54:26.831Z,102177.72
2022-08-10T19:57:04.757Z,102188.84
2022-08-10T20:00:17.048Z,102174.69
2022-08-10T20:02:36.329Z,102185.28
2022-08-10T20:05:11.101Z,102186.13
2022-08-10T20:07:48.267Z,102185.09
2022-08-10T20:10:23.372Z,102184.03
2022-08-10T20:13:03.617Z,102184.38
2022-08-10T20:15:41.989Z,102178.44
2022-08-10T20:18:18.229Z,102182.56
2022-08-10T20:20:50.762Z,102182.94
2022-08-10T20:23:22.411Z,102184.69
2022-08-10T20:25:56.459Z,102179.16
2022-08-10T20:28:35.513Z,102181.84
2022-08-10T20:31:17.774Z,102184.50
2022-08-10T20:33:58.768Z,102182.72
2022-08-10T20:36:33.946Z,102177.00
2022-08-10T20:39:17.604Z,102184.59
2022-08-10T20:41:58.682Z,102184.41
2022-08-10T20:44:40.426Z,102186.38
2022-08-10T20:47:14.887Z,102186.88
2022-08-10T20:49:50.108Z,102185.81
2022-08-10T20:52:18.761Z,102184.78
2022-08-10T20:54:52.294Z,102190.44
2022-08-10T20:57:55.082Z,102190.03
2022-08-10T21:00:31.601Z,102201.41
2022-08-10T21:03:42.858Z,102194.50
2022-08-10T21:07:04.121Z,102201.06
2022-08-10T21:09:50.980Z,102197.72
2022-08-10T21:12:54.949Z,102200.03
2022-08-10T21:15:41.620Z,102189.81
2022-08-10T21:18:44.066Z,102192.50
2022-08-10T21:21:41.127Z,102190.13
2022-08-10T21:24:27.179Z,102185.50
2022-08-10T21:27:17.548Z,102182.31
2022-08-10T21:30:08.523Z,102185.00
2022-08-10T21:32:48.812Z,102185.44
2022-08-10T21:35:36.824Z,102188.59
2022-08-10T21:38:13.016Z,102183.97
2022-08-10T21:41:17.962Z,102184.44
2022-08-10T21:44:05.203Z,102190.78
2022-08-10T21:47:40.013Z,102194.06
2022-08-10T21:50:27.573Z,102187.63
2022-08-10T21:53:28.838Z,102187.91
2022-08-10T21:56:48.288Z,102188.88
2022-08-10T21:59:45.675Z,102181.72
2022-08-10T22:02:41.213Z,102179.97
2022-08-10T22:05:42.677Z,102181.13
2022-08-10T22:08:34.271Z,102173.09
2022-08-10T22:11:22.807Z,102174.38
2022-08-10T22:14:09.831Z,102185.81
2022-08-10T22:17:05.091Z,102168.66
2022-08-10T22:19:55.089Z,102177.66
2022-08-10T22:22:56.511Z,102174.16
2022-08-10T22:26:00.232Z,102179.84
2022-08-10T22:28:48.587Z,102181.13
2022-08-10T22:31:51.804Z,102180.44
2022-08-10T22:35:07.719Z,102186.81
2022-08-10T22:38:07.784Z,102185.50
2022-08-10T22:40:55.654Z,102181.31
2022-08-10T22:43:46.461Z,102177.09
2022-08-10T22:46:37.647Z,102180.03
2022-08-10T22:49:05.085Z,102178.09
2022-08-10T22:51:51.741Z,102177.81
2022-08-10T22:54:41.620Z,102178.97
2022-08-10T22:57:32.839Z,102173.19
2022-08-10T23:00:13.115Z,102181.91
2022-08-10T23:02:44.648Z,102180.25
2022-08-10T23:05:15.648Z,102173.88
2022-08-10T23:07:50.437Z,102172.09
2022-08-10T23:10:22.803Z,102165.84
2022-08-10T23:12:58.004Z,102171.38
2022-08-10T23:15:46.065Z,102172.94
2022-08-10T23:18:37.083Z,102170.41
2022-08-10T23:21:07.577Z,102173.75
2022-08-10T23:23:40.894Z,102183.22
2022-08-10T23:26:12.785Z,102178.00
2022-08-10T23:29:05.240Z,102182.31
2022-08-10T23:32:00.794Z,102171.59
2022-08-10T23:34:27.303Z,102177.25
2022-08-10T23:36:58.572Z,102175.69
2022-08-10T23:39:35.468Z,102171.16
2022-08-10T23:42:07.947Z,102174.13
2022-08-10T23:44:43.040Z,102167.94
2022-08-10T23:47:13.914Z,102163.28
2022-08-10T23:49:44.026Z,102168.63
2022-08-10T23:52:15.209Z,102168.47
2022-08-10T23:54:47.232Z,102170.72
2022-08-10T23:57:21.521Z,102169.00
